Stockbridge, United Kingdom
Current Conditions -  °F | °C
As of 5:50 PM on Thursday 18 Dec 2014 (Local Time) from EGVP Reporting Station
Broken Clouds Broken Clouds  
Wind Chill: 54°   Ceiling: 800
Heat Index: 54°   Visibility: 5mi
Dew Point: 52°   Wind: 17mph
Humidity: 94%   Direction: 240°WSW
Pressure: 29.88"   Gusts: NA
Location:  51.15°N, 1.44°W
Report Text: EGVP 181750Z AUTO 24015KT 8000 // BKN008/// BKN015/// 12/11 Q1012
Loading
Personal Weather Stations






























Interactive Weather Map New forecast layout! Learn more

10-Day Weather Forecast

Advertisements
Track Severe Weather on mobile